Missao Velha, Brazil
Current Conditions -  °F | °C
As of 7:00 AM on Thursday 23 Oct 2014 (Local Time) from SBJU Reporting Station
Broken Clouds Broken Clouds  
Wind Chill: 81°   Ceiling: 2000
Heat Index: 85°   Visibility: 6mi
Dew Point: 72°   Wind: 10mph
Humidity: 74%   Direction: 170°S
Pressure: 30.06"   Gusts: NA
Location:  7.25°S, 39.14°W
Report Text: SBJU 231000Z 17009KT 9999 BKN020 27/22 Q1018
Loading
Personal Weather Stations






























Interactive Weather Map
Tropical Storm Tracking
New forecast layout! Learn more

10-Day Weather Forecast

Advertisements
Track Severe Weather on mobile